sensor_id;sensor_type;location;lat;lon;timestamp;P1;durP1;ratioP1;P2;durP2;ratioP2
65145;SDS011;51730;56.950;24.126;2022-09-02T00:02:11;2.58;;;1.83;;
65145;SDS011;51730;56.950;24.126;2022-09-02T00:04:39;3.60;;;2.10;;
65145;SDS011;51730;56.950;24.126;2022-09-02T00:07:06;4.55;;;2.17;;
65145;SDS011;51730;56.950;24.126;2022-09-02T00:09:33;2.83;;;2.10;;
65145;SDS011;51730;56.950;24.126;2022-09-02T00:12:00;3.55;;;1.88;;
65145;SDS011;51730;56.950;24.126;2022-09-02T00:14:28;3.35;;;2.05;;
65145;SDS011;51730;56.950;24.126;2022-09-02T00:16:57;2.63;;;1.90;;
65145;SDS011;51730;56.950;24.126;2022-09-02T00:19:26;1.77;;;1.20;;
65145;SDS011;51730;56.950;24.126;2022-09-02T00:21:55;1.80;;;1.30;;
65145;SDS011;51730;56.950;24.126;2022-09-02T00:24:23;2.05;;;0.82;;
65145;SDS011;51730;56.950;24.126;2022-09-02T00:26:50;1.60;;;1.38;;
65145;SDS011;51730;56.950;24.126;2022-09-02T00:29:22;1.30;;;1.10;;
65145;SDS011;51730;56.950;24.126;2022-09-02T00:31:49;4.97;;;1.70;;
65145;SDS011;51730;56.950;24.126;2022-09-02T00:34:16;3.60;;;1.90;;
65145;SDS011;51730;56.950;24.126;2022-09-02T00:36:43;4.00;;;2.10;;
65145;SDS011;51730;56.950;24.126;2022-09-02T00:39:11;4.43;;;1.80;;
65145;SDS011;51730;56.950;24.126;2022-09-02T00:41:39;3.47;;;1.73;;
65145;SDS011;51730;56.950;24.126;2022-09-02T00:44:08;5.15;;;1.50;;
65145;SDS011;51730;56.950;24.126;2022-09-02T00:46:37;2.35;;;1.33;;
65145;SDS011;51730;56.950;24.126;2022-09-02T00:49:07;2.10;;;1.33;;
65145;SDS011;51730;56.950;24.126;2022-09-02T00:51:37;2.00;;;1.30;;
65145;SDS011;51730;56.950;24.126;2022-09-02T00:54:08;2.33;;;1.00;;
65145;SDS011;51730;56.950;24.126;2022-09-02T00:56:37;1.00;;;0.90;;
65145;SDS011;51730;56.950;24.126;2022-09-02T00:59:07;5.65;;;1.17;;
65145;SDS011;51730;56.950;24.126;2022-09-02T01:01:35;2.15;;;1.08;;
65145;SDS011;51730;56.950;24.126;2022-09-02T01:04:02;1.23;;;1.00;;
65145;SDS011;51730;56.950;24.126;2022-09-02T01:06:29;3.03;;;1.08;;
65145;SDS011;51730;56.950;24.126;2022-09-02T01:09:04;2.78;;;1.30;;
65145;SDS011;51730;56.950;24.126;2022-09-02T01:11:36;2.10;;;1.10;;
65145;SDS011;51730;56.950;24.126;2022-09-02T01:14:06;2.50;;;1.35;;
65145;SDS011;51730;56.950;24.126;2022-09-02T01:16:37;2.50;;;1.30;;
65145;SDS011;51730;56.950;24.126;2022-09-02T01:19:15;1.85;;;1.05;;
65145;SDS011;51730;56.950;24.126;2022-09-02T01:21:49;1.00;;;0.90;;
65145;SDS011;51730;56.950;24.126;2022-09-02T01:24:17;1.70;;;0.80;;
65145;SDS011;51730;56.950;24.126;2022-09-02T01:26:46;1.70;;;0.90;;
65145;SDS011;51730;56.950;24.126;2022-09-02T01:29:14;2.58;;;0.80;;
65145;SDS011;51730;56.950;24.126;2022-09-02T01:31:41;0.90;;;0.90;;
65145;SDS011;51730;56.950;24.126;2022-09-02T01:34:09;1.38;;;0.80;;
65145;SDS011;51730;56.950;24.126;2022-09-02T01:36:37;1.33;;;0.80;;
65145;SDS011;51730;56.950;24.126;2022-09-02T01:39:06;1.88;;;0.88;;
65145;SDS011;51730;56.950;24.126;2022-09-02T01:41:35;1.42;;;0.80;;
65145;SDS011;51730;56.950;24.126;2022-09-02T01:44:02;3.63;;;1.05;;
65145;SDS011;51730;56.950;24.126;2022-09-02T01:46:31;2.78;;;1.05;;
65145;SDS011;51730;56.950;24.126;2022-09-02T01:48:59;1.02;;;0.80;;
65145;SDS011;51730;56.950;24.126;2022-09-02T01:51:27;0.77;;;0.70;;
65145;SDS011;51730;56.950;24.126;2022-09-02T01:53:54;2.25;;;0.82;;
65145;SDS011;51730;56.950;24.126;2022-09-02T01:56:20;1.40;;;0.90;;
65145;SDS011;51730;56.950;24.126;2022-09-02T01:58:47;1.00;;;1.00;;
65145;SDS011;51730;56.950;24.126;2022-09-02T02:01:15;1.75;;;0.80;;
65145;SDS011;51730;56.950;24.126;2022-09-02T02:03:42;1.77;;;1.17;;
65145;SDS011;51730;56.950;24.126;2022-09-02T02:06:10;0.93;;;0.93;;
65145;SDS011;51730;56.950;24.126;2022-09-02T02:08:39;1.63;;;1.00;;
65145;SDS011;51730;56.950;24.126;2022-09-02T02:11:06;1.75;;;1.00;;
65145;SDS011;51730;56.950;24.126;2022-09-02T02:13:34;2.53;;;0.95;;
65145;SDS011;51730;56.950;24.126;2022-09-02T02:16:01;1.42;;;0.80;;
65145;SDS011;51730;56.950;24.126;2022-09-02T02:18:29;2.05;;;0.98;;
65145;SDS011;51730;56.950;24.126;2022-09-02T02:20:56;2.15;;;0.88;;
65145;SDS011;51730;56.950;24.126;2022-09-02T02:23:24;1.20;;;1.00;;
65145;SDS011;51730;56.950;24.126;2022-09-02T02:25:51;0.90;;;0.90;;
65145;SDS011;51730;56.950;24.126;2022-09-02T02:28:18;1.05;;;0.95;;
65145;SDS011;51730;56.950;24.126;2022-09-02T02:30:45;0.80;;;0.80;;
65145;SDS011;51730;56.950;24.126;2022-09-02T02:33:12;1.00;;;0.90;;
65145;SDS011;51730;56.950;24.126;2022-09-02T02:35:39;1.58;;;1.00;;
65145;SDS011;51730;56.950;24.126;2022-09-02T02:38:06;1.23;;;0.82;;
65145;SDS011;51730;56.950;24.126;2022-09-02T02:40:33;0.80;;;0.80;;
65145;SDS011;51730;56.950;24.126;2022-09-02T02:43:00;1.20;;;1.10;;
65145;SDS011;51730;56.950;24.126;2022-09-02T02:45:27;1.20;;;1.10;;
65145;SDS011;51730;56.950;24.126;2022-09-02T02:47:54;1.52;;;1.30;;
65145;SDS011;51730;56.950;24.126;2022-09-02T02:50:21;1.33;;;1.00;;
65145;SDS011;51730;56.950;24.126;2022-09-02T02:52:49;1.02;;;0.90;;
65145;SDS011;51730;56.950;24.126;2022-09-02T02:55:19;1.75;;;1.02;;
65145;SDS011;51730;56.950;24.126;2022-09-02T02:57:48;1.33;;;1.10;;
65145;SDS011;51730;56.950;24.126;2022-09-02T03:00:25;2.35;;;1.30;;
65145;SDS011;51730;56.950;24.126;2022-09-02T03:02:55;2.17;;;1.23;;
65145;SDS011;51730;56.950;24.126;2022-09-02T03:05:24;1.33;;;0.98;;
65145;SDS011;51730;56.950;24.126;2022-09-02T03:07:52;3.60;;;1.20;;
65145;SDS011;51730;56.950;24.126;2022-09-02T03:10:19;1.48;;;1.15;;
65145;SDS011;51730;56.950;24.126;2022-09-02T03:12:47;1.80;;;1.00;;
65145;SDS011;51730;56.950;24.126;2022-09-02T03:15:16;2.28;;;1.20;;
65145;SDS011;51730;56.950;24.126;2022-09-02T03:17:47;1.60;;;1.30;;
65145;SDS011;51730;56.950;24.126;2022-09-02T03:20:15;2.72;;;1.75;;
65145;SDS011;51730;56.950;24.126;2022-09-02T03:22:46;1.73;;;1.60;;
65145;SDS011;51730;56.950;24.126;2022-09-02T03:25:15;1.45;;;1.20;;
65145;SDS011;51730;56.950;24.126;2022-09-02T03:27:45;2.15;;;1.25;;
65145;SDS011;51730;56.950;24.126;2022-09-02T03:30:15;1.27;;;1.10;;
65145;SDS011;51730;56.950;24.126;2022-09-02T03:35:13;2.83;;;1.90;;
65145;SDS011;51730;56.950;24.126;2022-09-02T03:37:44;2.08;;;1.88;;
65145;SDS011;51730;56.950;24.126;2022-09-02T03:40:13;2.22;;;1.55;;
65145;SDS011;51730;56.950;24.126;2022-09-02T03:42:45;2.00;;;1.50;;
65145;SDS011;51730;56.950;24.126;2022-09-02T03:45:12;3.92;;;3.28;;
65145;SDS011;51730;56.950;24.126;2022-09-02T03:47:41;3.10;;;1.50;;
65145;SDS011;51730;56.950;24.126;2022-09-02T03:50:17;4.95;;;1.30;;
65145;SDS011;51730;56.950;24.126;2022-09-02T03:52:45;2.85;;;1.20;;
65145;SDS011;51730;56.950;24.126;2022-09-02T03:55:12;1.90;;;1.35;;
65145;SDS011;51730;56.950;24.126;2022-09-02T03:57:39;3.90;;;1.50;;
65145;SDS011;51730;56.950;24.126;2022-09-02T04:00:07;3.05;;;1.50;;
65145;SDS011;51730;56.950;24.126;2022-09-02T04:02:36;1.38;;;1.10;;
65145;SDS011;51730;56.950;24.126;2022-09-02T04:05:04;1.73;;;1.33;;
65145;SDS011;51730;56.950;24.126;2022-09-02T04:07:39;2.78;;;1.50;;
65145;SDS011;51730;56.950;24.126;2022-09-02T04:10:07;1.98;;;1.65;;
65145;SDS011;51730;56.950;24.126;2022-09-02T04:12:35;3.53;;;1.90;;
65145;SDS011;51730;56.950;24.126;2022-09-02T04:15:03;2.38;;;2.10;;
65145;SDS011;51730;56.950;24.126;2022-09-02T04:17:34;2.20;;;1.90;;
65145;SDS011;51730;56.950;24.126;2022-09-02T04:20:03;2.28;;;1.67;;
65145;SDS011;51730;56.950;24.126;2022-09-02T04:22:31;4.97;;;2.13;;
65145;SDS011;51730;56.950;24.126;2022-09-02T04:24:59;2.28;;;1.58;;
65145;SDS011;51730;56.950;24.126;2022-09-02T04:27:26;2.78;;;1.70;;
65145;SDS011;51730;56.950;24.126;2022-09-02T04:29:53;1.92;;;1.70;;
65145;SDS011;51730;56.950;24.126;2022-09-02T04:32:21;2.92;;;2.20;;
65145;SDS011;51730;56.950;24.126;2022-09-02T04:34:48;4.60;;;2.10;;
65145;SDS011;51730;56.950;24.126;2022-09-02T04:37:16;2.92;;;2.13;;
65145;SDS011;51730;56.950;24.126;2022-09-02T04:39:43;2.92;;;2.22;;
65145;SDS011;51730;56.950;24.126;2022-09-02T04:42:10;3.13;;;2.03;;
65145;SDS011;51730;56.950;24.126;2022-09-02T04:44:37;5.57;;;2.90;;
65145;SDS011;51730;56.950;24.126;2022-09-02T04:47:04;6.30;;;3.88;;
65145;SDS011;51730;56.950;24.126;2022-09-02T04:49:31;2.30;;;1.50;;
65145;SDS011;51730;56.950;24.126;2022-09-02T04:51:59;5.95;;;2.30;;
65145;SDS011;51730;56.950;24.126;2022-09-02T04:54:26;8.15;;;2.90;;
65145;SDS011;51730;56.950;24.126;2022-09-02T04:56:53;7.57;;;2.30;;
65145;SDS011;51730;56.950;24.126;2022-09-02T04:59:20;3.58;;;2.30;;
65145;SDS011;51730;56.950;24.126;2022-09-02T05:01:47;3.30;;;2.65;;
65145;SDS011;51730;56.950;24.126;2022-09-02T05:04:15;5.40;;;2.70;;
65145;SDS011;51730;56.950;24.126;2022-09-02T05:06:42;5.55;;;2.97;;
65145;SDS011;51730;56.950;24.126;2022-09-02T05:09:10;7.75;;;2.90;;
65145;SDS011;51730;56.950;24.126;2022-09-02T05:11:36;4.60;;;2.83;;
65145;SDS011;51730;56.950;24.126;2022-09-02T05:14:04;6.65;;;3.00;;
65145;SDS011;51730;56.950;24.126;2022-09-02T05:16:36;6.80;;;2.80;;
65145;SDS011;51730;56.950;24.126;2022-09-02T05:19:05;8.63;;;3.08;;
65145;SDS011;51730;56.950;24.126;2022-09-02T05:21:39;6.47;;;2.83;;
65145;SDS011;51730;56.950;24.126;2022-09-02T05:24:09;4.53;;;3.33;;
65145;SDS011;51730;56.950;24.126;2022-09-02T05:26:36;8.07;;;3.58;;
65145;SDS011;51730;56.950;24.126;2022-09-02T05:29:04;10.10;;;4.82;;
65145;SDS011;51730;56.950;24.126;2022-09-02T05:31:33;8.05;;;4.47;;
65145;SDS011;51730;56.950;24.126;2022-09-02T05:34:00;7.07;;;4.00;;
65145;SDS011;51730;56.950;24.126;2022-09-02T05:36:27;5.72;;;3.13;;
65145;SDS011;51730;56.950;24.126;2022-09-02T05:38:57;10.23;;;6.10;;
65145;SDS011;51730;56.950;24.126;2022-09-02T05:41:25;9.05;;;4.05;;
65145;SDS011;51730;56.950;24.126;2022-09-02T05:43:54;4.85;;;3.08;;
65145;SDS011;51730;56.950;24.126;2022-09-02T05:46:27;7.53;;;3.38;;
65145;SDS011;51730;56.950;24.126;2022-09-02T05:48:55;9.85;;;3.17;;
65145;SDS011;51730;56.950;24.126;2022-09-02T05:54:25;8.75;;;3.92;;
65145;SDS011;51730;56.950;24.126;2022-09-02T05:56:55;6.50;;;3.50;;
65145;SDS011;51730;56.950;24.126;2022-09-02T05:59:27;10.98;;;5.10;;
65145;SDS011;51730;56.950;24.126;2022-09-02T06:01:55;5.90;;;3.28;;
65145;SDS011;51730;56.950;24.126;2022-09-02T06:04:23;7.68;;;4.82;;
65145;SDS011;51730;56.950;24.126;2022-09-02T06:06:51;10.88;;;5.53;;
65145;SDS011;51730;56.950;24.126;2022-09-02T06:09:19;5.65;;;3.78;;
65145;SDS011;51730;56.950;24.126;2022-09-02T06:11:48;8.38;;;4.88;;
65145;SDS011;51730;56.950;24.126;2022-09-02T06:14:17;8.15;;;3.10;;
65145;SDS011;51730;56.950;24.126;2022-09-02T06:16:47;8.18;;;4.00;;
65145;SDS011;51730;56.950;24.126;2022-09-02T06:19:16;7.85;;;3.97;;
65145;SDS011;51730;56.950;24.126;2022-09-02T06:21:46;6.78;;;3.53;;
65145;SDS011;51730;56.950;24.126;2022-09-02T06:24:13;8.13;;;3.83;;
65145;SDS011;51730;56.950;24.126;2022-09-02T06:26:40;12.48;;;4.35;;
65145;SDS011;51730;56.950;24.126;2022-09-02T06:29:08;6.88;;;3.50;;
65145;SDS011;51730;56.950;24.126;2022-09-02T06:31:36;7.47;;;3.22;;
65145;SDS011;51730;56.950;24.126;2022-09-02T06:34:05;5.05;;;2.78;;
65145;SDS011;51730;56.950;24.126;2022-09-02T06:36:32;3.13;;;2.35;;
65145;SDS011;51730;56.950;24.126;2022-09-02T06:38:59;5.00;;;2.80;;
65145;SDS011;51730;56.950;24.126;2022-09-02T06:41:28;5.93;;;3.08;;
65145;SDS011;51730;56.950;24.126;2022-09-02T06:43:59;4.93;;;3.05;;
65145;SDS011;51730;56.950;24.126;2022-09-02T06:46:29;4.68;;;3.28;;
65145;SDS011;51730;56.950;24.126;2022-09-02T06:48:58;12.32;;;3.90;;
65145;SDS011;51730;56.950;24.126;2022-09-02T06:51:27;6.68;;;3.42;;
65145;SDS011;51730;56.950;24.126;2022-09-02T06:53:58;5.47;;;3.28;;
65145;SDS011;51730;56.950;24.126;2022-09-02T06:56:26;5.75;;;3.60;;
65145;SDS011;51730;56.950;24.126;2022-09-02T06:58:53;7.43;;;3.45;;
65145;SDS011;51730;56.950;24.126;2022-09-02T07:01:22;4.93;;;3.55;;
65145;SDS011;51730;56.950;24.126;2022-09-02T07:03:51;22.92;;;10.88;;
65145;SDS011;51730;56.950;24.126;2022-09-02T07:06:38;10.85;;;5.40;;
65145;SDS011;51730;56.950;24.126;2022-09-02T07:09:11;11.13;;;5.43;;
65145;SDS011;51730;56.950;24.126;2022-09-02T07:11:39;7.50;;;4.13;;
65145;SDS011;51730;56.950;24.126;2022-09-02T07:14:07;8.32;;;3.95;;
65145;SDS011;51730;56.950;24.126;2022-09-02T07:16:36;8.65;;;3.80;;
65145;SDS011;51730;56.950;24.126;2022-09-02T07:19:07;8.05;;;3.92;;
65145;SDS011;51730;56.950;24.126;2022-09-02T07:21:41;7.78;;;3.47;;
65145;SDS011;51730;56.950;24.126;2022-09-02T07:24:09;4.72;;;2.95;;
65145;SDS011;51730;56.950;24.126;2022-09-02T07:26:37;5.50;;;2.90;;
65145;SDS011;51730;56.950;24.126;2022-09-02T07:29:05;4.93;;;2.55;;
65145;SDS011;51730;56.950;24.126;2022-09-02T07:31:34;12.75;;;3.38;;
65145;SDS011;51730;56.950;24.126;2022-09-02T07:34:03;5.25;;;3.65;;
65145;SDS011;51730;56.950;24.126;2022-09-02T07:36:31;9.60;;;4.55;;
65145;SDS011;51730;56.950;24.126;2022-09-02T07:39:00;12.45;;;4.40;;
65145;SDS011;51730;56.950;24.126;2022-09-02T07:41:28;10.35;;;3.90;;
65145;SDS011;51730;56.950;24.126;2022-09-02T07:43:55;5.25;;;2.80;;
65145;SDS011;51730;56.950;24.126;2022-09-02T07:46:25;9.93;;;4.63;;
65145;SDS011;51730;56.950;24.126;2022-09-02T07:48:54;6.93;;;4.22;;
65145;SDS011;51730;56.950;24.126;2022-09-02T07:51:22;8.77;;;4.05;;
65145;SDS011;51730;56.950;24.126;2022-09-02T07:53:55;9.13;;;3.50;;
65145;SDS011;51730;56.950;24.126;2022-09-02T07:56:22;6.13;;;3.45;;
65145;SDS011;51730;56.950;24.126;2022-09-02T07:58:50;4.60;;;3.20;;
65145;SDS011;51730;56.950;24.126;2022-09-02T08:01:18;10.38;;;3.38;;
65145;SDS011;51730;56.950;24.126;2022-09-02T08:03:49;6.32;;;3.28;;
65145;SDS011;51730;56.950;24.126;2022-09-02T08:06:17;7.97;;;4.00;;
65145;SDS011;51730;56.950;24.126;2022-09-02T08:09:00;9.07;;;3.70;;
65145;SDS011;51730;56.950;24.126;2022-09-02T08:11:29;7.47;;;3.67;;
65145;SDS011;51730;56.950;24.126;2022-09-02T08:13:57;6.10;;;3.30;;
65145;SDS011;51730;56.950;24.126;2022-09-02T08:16:25;3.47;;;2.67;;
65145;SDS011;51730;56.950;24.126;2022-09-02T08:18:54;4.07;;;2.47;;
65145;SDS011;51730;56.950;24.126;2022-09-02T08:21:21;3.15;;;2.38;;
65145;SDS011;51730;56.950;24.126;2022-09-02T08:23:48;5.18;;;2.70;;
65145;SDS011;51730;56.950;24.126;2022-09-02T08:26:15;4.10;;;2.10;;
65145;SDS011;51730;56.950;24.126;2022-09-02T08:28:43;6.57;;;2.38;;
65145;SDS011;51730;56.950;24.126;2022-09-02T08:31:10;7.15;;;3.78;;
65145;SDS011;51730;56.950;24.126;2022-09-02T08:33:38;3.17;;;2.42;;
65145;SDS011;51730;56.950;24.126;2022-09-02T08:36:05;2.40;;;2.03;;
65145;SDS011;51730;56.950;24.126;2022-09-02T08:38:34;2.95;;;2.08;;
65145;SDS011;51730;56.950;24.126;2022-09-02T08:41:10;4.10;;;1.90;;
65145;SDS011;51730;56.950;24.126;2022-09-02T08:43:40;4.45;;;2.75;;
65145;SDS011;51730;56.950;24.126;2022-09-02T08:46:10;3.00;;;2.33;;
65145;SDS011;51730;56.950;24.126;2022-09-02T08:51:49;2.60;;;1.73;;
65145;SDS011;51730;56.950;24.126;2022-09-02T08:56:59;2.42;;;1.70;;
65145;SDS011;51730;56.950;24.126;2022-09-02T08:59:26;5.10;;;2.35;;
65145;SDS011;51730;56.950;24.126;2022-09-02T09:08:00;4.25;;;1.80;;
65145;SDS011;51730;56.950;24.126;2022-09-02T09:10:50;3.28;;;1.40;;
65145;SDS011;51730;56.950;24.126;2022-09-02T09:21:56;5.68;;;3.17;;
65145;SDS011;51730;56.950;24.126;2022-09-02T09:27:08;2.78;;;2.00;;
65145;SDS011;51730;56.950;24.126;2022-09-02T09:29:50;3.65;;;1.80;;
65145;SDS011;51730;56.950;24.126;2022-09-02T09:32:25;5.00;;;2.85;;
65145;SDS011;51730;56.950;24.126;2022-09-02T09:35:05;3.97;;;1.73;;
65145;SDS011;51730;56.950;24.126;2022-09-02T09:45:43;2.05;;;1.60;;
65145;SDS011;51730;56.950;24.126;2022-09-02T09:50:45;2.63;;;1.60;;
65145;SDS011;51730;56.950;24.126;2022-09-02T09:58:54;3.00;;;1.58;;
65145;SDS011;51730;56.950;24.126;2022-09-02T10:01:21;2.15;;;1.60;;
65145;SDS011;51730;56.950;24.126;2022-09-02T10:06:22;1.92;;;1.55;;
65145;SDS011;51730;56.950;24.126;2022-09-02T10:11:28;2.15;;;1.52;;
65145;SDS011;51730;56.950;24.126;2022-09-02T10:14:01;4.78;;;2.03;;
65145;SDS011;51730;56.950;24.126;2022-09-02T10:19:02;5.50;;;2.13;;
65145;SDS011;51730;56.950;24.126;2022-09-02T10:27:05;1.58;;;1.10;;
65145;SDS011;51730;56.950;24.126;2022-09-02T10:38:45;1.20;;;0.95;;
65145;SDS011;51730;56.950;24.126;2022-09-02T10:44:31;2.72;;;1.80;;
65145;SDS011;51730;56.950;24.126;2022-09-02T10:47:12;2.33;;;1.40;;
65145;SDS011;51730;56.950;24.126;2022-09-02T10:52:37;4.15;;;1.10;;
65145;SDS011;51730;56.950;24.126;2022-09-02T10:58:17;2.22;;;1.00;;
65145;SDS011;51730;56.950;24.126;2022-09-02T11:00:56;1.38;;;0.90;;
65145;SDS011;51730;56.950;24.126;2022-09-02T11:03:26;0.75;;;0.75;;
65145;SDS011;51730;56.950;24.126;2022-09-02T11:06:09;5.90;;;1.20;;
65145;SDS011;51730;56.950;24.126;2022-09-02T11:11:21;3.65;;;1.08;;
65145;SDS011;51730;56.950;24.126;2022-09-02T11:22:00;7.38;;;3.13;;
65145;SDS011;51730;56.950;24.126;2022-09-02T11:27:40;3.05;;;0.90;;
65145;SDS011;51730;56.950;24.126;2022-09-02T11:30:19;1.73;;;0.90;;
65145;SDS011;51730;56.950;24.126;2022-09-02T11:32:51;1.98;;;0.82;;
65145;SDS011;51730;56.950;24.126;2022-09-02T11:35:23;1.13;;;1.00;;
65145;SDS011;51730;56.950;24.126;2022-09-02T11:38:16;5.30;;;1.30;;
65145;SDS011;51730;56.950;24.126;2022-09-02T11:54:40;1.90;;;1.33;;
65145;SDS011;51730;56.950;24.126;2022-09-02T11:57:14;3.78;;;1.10;;
65145;SDS011;51730;56.950;24.126;2022-09-02T12:02:33;1.45;;;0.90;;
65145;SDS011;51730;56.950;24.126;2022-09-02T12:08:10;1.20;;;1.10;;
65145;SDS011;51730;56.950;24.126;2022-09-02T12:13:47;2.25;;;2.05;;
65145;SDS011;51730;56.950;24.126;2022-09-02T12:18:41;2.53;;;1.80;;
65145;SDS011;51730;56.950;24.126;2022-09-02T12:28:51;2.80;;;1.92;;
65145;SDS011;51730;56.950;24.126;2022-09-02T12:33:55;2.70;;;1.30;;
65145;SDS011;51730;56.950;24.126;2022-09-02T12:47:30;4.72;;;2.03;;
65145;SDS011;51730;56.950;24.126;2022-09-02T12:50:11;2.40;;;2.03;;
65145;SDS011;51730;56.950;24.126;2022-09-02T12:58:28;4.10;;;3.25;;
65145;SDS011;51730;56.950;24.126;2022-09-02T13:01:32;5.93;;;3.42;;
65145;SDS011;51730;56.950;24.126;2022-09-02T13:07:06;4.43;;;2.92;;
65145;SDS011;51730;56.950;24.126;2022-09-02T13:15:33;4.35;;;3.30;;
65145;SDS011;51730;56.950;24.126;2022-09-02T13:24:20;4.18;;;2.45;;
65145;SDS011;51730;56.950;24.126;2022-09-02T13:29:58;4.10;;;1.80;;
65145;SDS011;51730;56.950;24.126;2022-09-02T13:32:28;4.07;;;2.88;;
65145;SDS011;51730;56.950;24.126;2022-09-02T13:34:56;3.25;;;2.70;;
65145;SDS011;51730;56.950;24.126;2022-09-02T13:40:18;1.63;;;1.52;;
65145;SDS011;51730;56.950;24.126;2022-09-02T13:42:49;6.15;;;1.85;;
65145;SDS011;51730;56.950;24.126;2022-09-02T13:45:22;2.95;;;2.03;;
65145;SDS011;51730;56.950;24.126;2022-09-02T13:47:52;2.95;;;1.77;;
65145;SDS011;51730;56.950;24.126;2022-09-02T13:50:34;6.00;;;2.20;;
65145;SDS011;51730;56.950;24.126;2022-09-02T13:53:03;6.05;;;2.47;;
65145;SDS011;51730;56.950;24.126;2022-09-02T13:55:53;5.70;;;2.80;;
65145;SDS011;51730;56.950;24.126;2022-09-02T13:58:30;2.45;;;2.25;;
65145;SDS011;51730;56.950;24.126;2022-09-02T14:01:22;2.65;;;2.40;;
65145;SDS011;51730;56.950;24.126;2022-09-02T14:03:57;2.50;;;2.28;;
65145;SDS011;51730;56.950;24.126;2022-09-02T14:06:27;3.20;;;2.63;;
65145;SDS011;51730;56.950;24.126;2022-09-02T14:09:05;5.70;;;4.10;;
65145;SDS011;51730;56.950;24.126;2022-09-02T14:11:40;4.63;;;2.88;;
65145;SDS011;51730;56.950;24.126;2022-09-02T14:14:16;4.32;;;3.13;;
65145;SDS011;51730;56.950;24.126;2022-09-02T14:16:47;4.82;;;3.00;;
65145;SDS011;51730;56.950;24.126;2022-09-02T14:21:48;3.50;;;2.30;;
65145;SDS011;51730;56.950;24.126;2022-09-02T14:24:20;6.18;;;3.05;;
65145;SDS011;51730;56.950;24.126;2022-09-02T14:26:49;2.83;;;1.75;;
65145;SDS011;51730;56.950;24.126;2022-09-02T14:32:33;2.90;;;2.17;;
65145;SDS011;51730;56.950;24.126;2022-09-02T14:34:46;2.47;;;1.50;;
65145;SDS011;51730;56.950;24.126;2022-09-02T14:37:19;1.60;;;1.40;;
65145;SDS011;51730;56.950;24.126;2022-09-02T14:39:53;2.35;;;1.60;;
65145;SDS011;51730;56.950;24.126;2022-09-02T14:42:44;4.30;;;3.35;;
65145;SDS011;51730;56.950;24.126;2022-09-02T14:45:12;4.32;;;3.00;;
65145;SDS011;51730;56.950;24.126;2022-09-02T14:47:40;4.93;;;2.60;;
65145;SDS011;51730;56.950;24.126;2022-09-02T14:50:09;3.15;;;2.13;;
65145;SDS011;51730;56.950;24.126;2022-09-02T14:52:44;4.38;;;2.60;;
65145;SDS011;51730;56.950;24.126;2022-09-02T14:58:15;3.15;;;2.00;;
65145;SDS011;51730;56.950;24.126;2022-09-02T15:00:46;3.35;;;2.80;;
65145;SDS011;51730;56.950;24.126;2022-09-02T15:03:17;6.45;;;2.63;;
65145;SDS011;51730;56.950;24.126;2022-09-02T15:05:45;6.85;;;3.28;;
65145;SDS011;51730;56.950;24.126;2022-09-02T15:08:13;4.00;;;3.60;;
65145;SDS011;51730;56.950;24.126;2022-09-02T15:10:41;7.68;;;3.67;;
65145;SDS011;51730;56.950;24.126;2022-09-02T15:13:09;15.70;;;7.80;;
65145;SDS011;51730;56.950;24.126;2022-09-02T15:15:47;4.78;;;2.53;;
65145;SDS011;51730;56.950;24.126;2022-09-02T15:18:21;6.57;;;3.25;;
65145;SDS011;51730;56.950;24.126;2022-09-02T15:20:48;2.70;;;1.48;;
65145;SDS011;51730;56.950;24.126;2022-09-02T15:23:17;1.90;;;1.30;;
65145;SDS011;51730;56.950;24.126;2022-09-02T15:25:45;2.55;;;1.25;;
65145;SDS011;51730;56.950;24.126;2022-09-02T15:28:12;2.30;;;1.30;;
65145;SDS011;51730;56.950;24.126;2022-09-02T15:30:39;2.55;;;0.95;;
65145;SDS011;51730;56.950;24.126;2022-09-02T15:33:07;1.30;;;1.02;;
65145;SDS011;51730;56.950;24.126;2022-09-02T15:35:42;0.98;;;0.90;;
65145;SDS011;51730;56.950;24.126;2022-09-02T15:38:10;4.93;;;2.47;;
65145;SDS011;51730;56.950;24.126;2022-09-02T15:40:37;4.13;;;1.40;;
65145;SDS011;51730;56.950;24.126;2022-09-02T15:43:04;3.08;;;1.90;;
65145;SDS011;51730;56.950;24.126;2022-09-02T15:45:31;3.88;;;2.30;;
65145;SDS011;51730;56.950;24.126;2022-09-02T15:47:59;1.75;;;1.35;;
65145;SDS011;51730;56.950;24.126;2022-09-02T15:50:29;1.40;;;1.20;;
65145;SDS011;51730;56.950;24.126;2022-09-02T15:52:59;1.08;;;0.70;;
65145;SDS011;51730;56.950;24.126;2022-09-02T15:55:26;1.30;;;1.20;;
65145;SDS011;51730;56.950;24.126;2022-09-02T15:57:56;2.10;;;1.17;;
65145;SDS011;51730;56.950;24.126;2022-09-02T16:00:23;1.13;;;0.90;;
65145;SDS011;51730;56.950;24.126;2022-09-02T16:02:54;1.20;;;1.10;;
65145;SDS011;51730;56.950;24.126;2022-09-02T16:05:22;5.63;;;2.40;;
65145;SDS011;51730;56.950;24.126;2022-09-02T16:07:49;4.07;;;1.70;;
65145;SDS011;51730;56.950;24.126;2022-09-02T16:10:17;2.35;;;1.80;;
65145;SDS011;51730;56.950;24.126;2022-09-02T16:12:44;2.88;;;1.50;;
65145;SDS011;51730;56.950;24.126;2022-09-02T16:15:11;1.40;;;1.30;;
65145;SDS011;51730;56.950;24.126;2022-09-02T16:17:38;2.13;;;1.50;;
65145;SDS011;51730;56.950;24.126;2022-09-02T16:20:07;1.52;;;1.42;;
65145;SDS011;51730;56.950;24.126;2022-09-02T16:22:34;2.85;;;1.40;;
65145;SDS011;51730;56.950;24.126;2022-09-02T16:25:01;2.67;;;1.20;;
65145;SDS011;51730;56.950;24.126;2022-09-02T16:27:28;3.10;;;1.20;;
65145;SDS011;51730;56.950;24.126;2022-09-02T16:30:13;1.38;;;1.10;;
65145;SDS011;51730;56.950;24.126;2022-09-02T16:32:42;2.35;;;1.50;;
65145;SDS011;51730;56.950;24.126;2022-09-02T16:35:09;1.67;;;1.20;;
65145;SDS011;51730;56.950;24.126;2022-09-02T16:37:36;1.63;;;1.10;;
65145;SDS011;51730;56.950;24.126;2022-09-02T16:40:04;1.30;;;1.20;;
65145;SDS011;51730;56.950;24.126;2022-09-02T16:42:33;2.47;;;1.30;;
65145;SDS011;51730;56.950;24.126;2022-09-02T16:45:03;2.33;;;1.77;;
65145;SDS011;51730;56.950;24.126;2022-09-02T16:47:31;2.72;;;1.70;;
65145;SDS011;51730;56.950;24.126;2022-09-02T16:49:58;2.55;;;1.75;;
65145;SDS011;51730;56.950;24.126;2022-09-02T16:52:25;3.97;;;1.77;;
65145;SDS011;51730;56.950;24.126;2022-09-02T16:54:52;1.92;;;1.48;;
65145;SDS011;51730;56.950;24.126;2022-09-02T16:57:18;1.92;;;1.67;;
65145;SDS011;51730;56.950;24.126;2022-09-02T16:59:45;1.45;;;1.27;;
65145;SDS011;51730;56.950;24.126;2022-09-02T17:02:12;2.25;;;1.88;;
65145;SDS011;51730;56.950;24.126;2022-09-02T17:04:39;1.92;;;1.50;;
65145;SDS011;51730;56.950;24.126;2022-09-02T17:07:06;2.80;;;1.50;;
65145;SDS011;51730;56.950;24.126;2022-09-02T17:09:34;1.60;;;1.50;;
65145;SDS011;51730;56.950;24.126;2022-09-02T17:12:01;1.63;;;1.50;;
65145;SDS011;51730;56.950;24.126;2022-09-02T17:14:28;3.13;;;1.92;;
65145;SDS011;51730;56.950;24.126;2022-09-02T17:16:55;2.15;;;1.70;;
65145;SDS011;51730;56.950;24.126;2022-09-02T17:19:22;4.90;;;1.85;;
65145;SDS011;51730;56.950;24.126;2022-09-02T17:21:57;2.58;;;1.90;;
65145;SDS011;51730;56.950;24.126;2022-09-02T17:24:24;2.50;;;1.58;;
65145;SDS011;51730;56.950;24.126;2022-09-02T17:26:53;4.63;;;1.80;;
65145;SDS011;51730;56.950;24.126;2022-09-02T17:29:23;4.32;;;2.45;;
65145;SDS011;51730;56.950;24.126;2022-09-02T17:32:13;2.25;;;1.40;;
65145;SDS011;51730;56.950;24.126;2022-09-02T17:34:40;1.98;;;1.70;;
65145;SDS011;51730;56.950;24.126;2022-09-02T17:37:07;2.55;;;1.73;;
65145;SDS011;51730;56.950;24.126;2022-09-02T17:39:34;3.05;;;2.10;;
65145;SDS011;51730;56.950;24.126;2022-09-02T17:42:02;2.17;;;1.80;;